Terminal Aerodrome Forecast
Issued by NWS

Current Version | Previous Version | Graphics & Text | Print | Product List | Glossary On
Versions: 1 2 3 4 5 6 7 8 9 10 11 12 13 14 15 16 17 18 19 20 21 22 23 24 25 26 27
000
FTUS41 KPBZ 302100 AAA
TAFHLG
TAF AMD
KHLG 302113Z 3021/3118 19008KT P6SM SCT050 BKN150
     FM310800 21005KT 5SM -SHRA OVC030
     FM311200 23008KT 3SM -SHRA OVC015=

USA.gov is the U.S. government's official web portal to all federal, state and local government web resources and services.